createdAt,value
2018-06-21T00:02:21.488Z,2.20
2018-06-21T00:04:51.544Z,1.37
2018-06-21T00:07:21.956Z,1.63
2018-06-21T00:09:52.004Z,1.40
2018-06-21T00:12:22.140Z,2.00
2018-06-21T00:14:52.192Z,1.93
2018-06-21T00:17:22.289Z,1.70
2018-06-21T00:19:52.304Z,1.90
2018-06-21T00:22:22.376Z,1.93
2018-06-21T00:24:52.425Z,1.63
2018-06-21T00:27:22.426Z,1.90
2018-06-21T00:29:52.491Z,1.83
2018-06-21T00:32:22.605Z,2.00
2018-06-21T00:34:52.779Z,2.00
2018-06-21T00:37:22.856Z,1.90
2018-06-21T00:39:52.871Z,2.10
2018-06-21T00:42:22.956Z,2.43
2018-06-21T00:44:52.772Z,2.33
2018-06-21T00:47:22.632Z,2.07
2018-06-21T00:49:52.681Z,1.87
2018-06-21T00:52:22.776Z,2.27
2018-06-21T00:54:52.872Z,1.90
2018-06-21T00:57:22.928Z,2.50
2018-06-21T00:59:53.004Z,1.87
2018-06-21T01:02:22.963Z,2.20
2018-06-21T01:04:52.708Z,1.83
2018-06-21T01:07:22.760Z,2.37
2018-06-21T01:09:52.852Z,2.20
2018-06-21T01:12:23.628Z,2.20
2018-06-21T01:14:54.775Z,2.20
2018-06-21T01:17:24.816Z,2.40
2018-06-21T01:19:54.931Z,2.33
2018-06-21T01:22:25.080Z,2.93
2018-06-21T01:24:55.136Z,2.50
2018-06-21T01:27:25.206Z,3.17
2018-06-21T01:29:55.348Z,3.50
2018-06-21T01:32:25.456Z,3.43
2018-06-21T01:34:55.196Z,2.80
2018-06-21T01:37:24.995Z,3.13
2018-06-21T01:39:55.144Z,3.00
2018-06-21T01:42:25.237Z,2.20
2018-06-21T01:44:55.348Z,2.57
2018-06-21T01:47:25.452Z,3.50
2018-06-21T01:49:55.595Z,2.53
2018-06-21T01:52:25.695Z,2.53
2018-06-21T01:54:55.724Z,2.43
2018-06-21T01:57:25.806Z,2.53
2018-06-21T01:59:55.928Z,2.50
2018-06-21T02:02:26.028Z,2.70
2018-06-21T02:04:56.180Z,2.63
2018-06-21T02:07:26.283Z,2.63
2018-06-21T02:09:56.284Z,2.67
2018-06-21T02:12:26.341Z,2.30
2018-06-21T02:14:56.396Z,2.47
2018-06-21T02:17:26.472Z,2.30
2018-06-21T02:19:56.548Z,2.37
2018-06-21T02:22:26.728Z,2.30
2018-06-21T02:24:56.736Z,2.00
2018-06-21T02:27:26.783Z,2.00
2018-06-21T02:29:57.616Z,2.40
2018-06-21T02:32:27.712Z,2.33
2018-06-21T02:34:57.815Z,2.43
2018-06-21T02:37:27.888Z,2.20
2018-06-21T02:39:57.967Z,1.97
2018-06-21T02:42:28.037Z,2.33
2018-06-21T02:44:58.126Z,2.20
2018-06-21T02:47:28.241Z,2.37
2018-06-21T02:49:58.359Z,2.37
2018-06-21T02:52:28.679Z,1.97
2018-06-21T02:54:58.764Z,1.93
2018-06-21T02:57:28.863Z,2.00
2018-06-21T02:59:58.998Z,1.77
2018-06-21T03:02:29.114Z,1.70
2018-06-21T03:04:59.192Z,1.80
2018-06-21T03:07:29.255Z,1.40
2018-06-21T03:09:59.331Z,1.70
2018-06-21T03:12:29.436Z,1.47
2018-06-21T03:14:59.544Z,1.70
2018-06-21T03:17:29.388Z,1.40
2018-06-21T03:19:59.276Z,1.30
2018-06-21T03:22:29.374Z,1.40
2018-06-21T03:24:59.516Z,1.40
2018-06-21T03:27:29.584Z,0.90
2018-06-21T03:29:59.690Z,1.10
2018-06-21T03:32:29.747Z,1.10
2018-06-21T03:34:59.848Z,1.10
2018-06-21T03:37:29.949Z,0.93
2018-06-21T03:40:00.276Z,1.00
2018-06-21T03:42:30.364Z,0.80
2018-06-21T03:45:00.500Z,0.90
2018-06-21T03:47:30.893Z,1.00
2018-06-21T03:50:00.948Z,1.13
2018-06-21T03:52:31.091Z,0.67
2018-06-21T03:55:01.209Z,0.80
2018-06-21T03:57:31.479Z,0.70
2018-06-21T04:00:01.576Z,0.70
2018-06-21T04:02:31.599Z,0.53
2018-06-21T04:05:01.689Z,0.70
2018-06-21T04:07:31.804Z,0.50
2018-06-21T04:10:01.910Z,0.70
2018-06-21T04:12:32.016Z,0.90
2018-06-21T04:15:02.200Z,0.77
2018-06-21T04:17:32.392Z,0.70
2018-06-21T04:20:02.436Z,0.53
2018-06-21T04:22:32.528Z,0.60
2018-06-21T04:25:02.359Z,0.70
2018-06-21T04:27:32.231Z,0.60
2018-06-21T04:30:02.324Z,0.60
2018-06-21T04:32:32.744Z,0.80
2018-06-21T04:35:02.750Z,0.70
2018-06-21T04:37:32.806Z,0.50
2018-06-21T04:40:02.900Z,0.70
2018-06-21T04:42:32.968Z,0.50
2018-06-21T04:45:03.099Z,0.60
2018-06-21T04:47:33.233Z,0.70
2018-06-21T04:50:03.425Z,0.50
2018-06-21T04:52:33.532Z,0.50
2018-06-21T04:55:03.749Z,0.40
2018-06-21T04:57:33.892Z,0.50
2018-06-21T05:00:04.065Z,0.60
2018-06-21T05:02:34.148Z,0.40
2018-06-21T05:05:04.281Z,0.40
2018-06-21T05:07:34.428Z,0.40
2018-06-21T05:10:04.624Z,0.40
2018-06-21T05:12:34.660Z,0.50
2018-06-21T05:15:04.916Z,0.33
2018-06-21T05:17:35.254Z,0.40
2018-06-21T05:20:05.316Z,0.30
2018-06-21T05:22:35.344Z,0.47
2018-06-21T05:25:05.754Z,0.30
2018-06-21T05:27:35.853Z,0.40
2018-06-21T05:30:05.638Z,0.30
2018-06-21T05:32:35.581Z,0.30
2018-06-21T05:35:05.737Z,0.40
2018-06-21T05:37:35.857Z,0.50
2018-06-21T05:40:05.640Z,0.33
2018-06-21T05:42:35.475Z,0.30
2018-06-21T05:45:05.570Z,0.40
2018-06-21T05:47:35.612Z,0.50
2018-06-21T05:50:05.866Z,0.33
2018-06-21T05:52:35.936Z,0.63
2018-06-21T05:55:06.057Z,0.63
2018-06-21T05:57:36.192Z,0.50
2018-06-21T06:00:06.387Z,0.40
2018-06-21T06:02:36.440Z,0.53
2018-06-21T06:05:06.612Z,0.60
2018-06-21T06:07:36.693Z,0.67
2018-06-21T06:10:06.987Z,0.50
2018-06-21T06:12:37.011Z,0.50
2018-06-21T06:15:07.172Z,0.50
2018-06-21T06:17:37.244Z,0.40
2018-06-21T06:20:07.317Z,0.50
2018-06-21T06:22:37.384Z,0.50
2018-06-21T06:25:07.524Z,0.50
2018-06-21T06:27:37.628Z,0.50
2018-06-21T06:30:08.539Z,0.50
2018-06-21T06:32:38.898Z,0.50
2018-06-21T06:35:08.968Z,0.67
2018-06-21T06:37:39.216Z,0.60
2018-06-21T06:40:09.333Z,0.63
2018-06-21T06:42:39.095Z,0.60
2018-06-21T06:45:08.892Z,0.60
2018-06-21T06:47:39.044Z,0.63
2018-06-21T06:50:09.052Z,0.50
2018-06-21T06:52:39.168Z,0.80
2018-06-21T06:55:09.351Z,0.87
2018-06-21T06:57:39.420Z,0.53
2018-06-21T07:00:09.584Z,0.60
2018-06-21T07:02:39.644Z,0.90
2018-06-21T07:05:09.921Z,0.83
2018-06-21T07:07:39.972Z,0.73
2018-06-21T07:10:10.304Z,1.07
2018-06-21T07:12:40.424Z,1.17
2018-06-21T07:15:10.428Z,1.20
2018-06-21T07:17:40.427Z,1.10
2018-06-21T07:20:10.511Z,1.20
2018-06-21T07:22:40.588Z,0.93
2018-06-21T07:25:10.640Z,1.50
2018-06-21T07:27:40.762Z,1.60
2018-06-21T07:30:10.872Z,2.13
2018-06-21T07:32:41.060Z,1.97
2018-06-21T07:35:11.477Z,2.00
2018-06-21T07:37:41.609Z,2.07
2018-06-21T07:40:11.692Z,2.37
2018-06-21T07:42:41.770Z,2.13
2018-06-21T07:45:11.848Z,2.67
2018-06-21T07:47:42.105Z,2.17
2018-06-21T07:50:12.205Z,1.97
2018-06-21T07:52:43.154Z,1.97
2018-06-21T07:55:13.264Z,2.63
2018-06-21T07:57:43.488Z,2.13
2018-06-21T08:00:13.578Z,2.37
2018-06-21T08:02:43.733Z,2.10
2018-06-21T08:05:13.856Z,2.00
2018-06-21T08:07:44.130Z,2.60
2018-06-21T08:10:14.476Z,2.50
2018-06-21T08:12:44.665Z,2.23
2018-06-21T08:15:14.761Z,2.43
2018-06-21T08:17:44.924Z,2.17
2018-06-21T08:20:14.687Z,2.00
2018-06-21T08:22:44.461Z,2.20
2018-06-21T08:25:14.506Z,2.33
2018-06-21T08:27:44.529Z,2.03
2018-06-21T08:30:14.592Z,1.63
2018-06-21T08:32:44.679Z,2.70
2018-06-21T08:35:14.908Z,2.40
2018-06-21T08:37:45.012Z,1.97
2018-06-21T08:40:15.106Z,1.90
2018-06-21T08:42:44.896Z,2.20
2018-06-21T08:45:15.132Z,2.37
2018-06-21T08:47:45.216Z,2.37
2018-06-21T08:50:15.256Z,2.93
2018-06-21T08:52:45.394Z,2.73
2018-06-21T08:55:15.488Z,2.40
2018-06-21T08:57:45.556Z,2.97
2018-06-21T09:00:16.450Z,2.60
2018-06-21T09:02:46.544Z,2.17
2018-06-21T09:05:16.744Z,2.60
2018-06-21T09:07:46.841Z,2.70
2018-06-21T09:10:17.150Z,3.20
2018-06-21T09:12:47.321Z,2.70
2018-06-21T09:15:17.541Z,2.43
2018-06-21T09:17:47.663Z,2.53
2018-06-21T09:20:17.868Z,2.67
2018-06-21T09:22:47.993Z,2.70
2018-06-21T09:25:18.108Z,2.47
2018-06-21T09:27:48.260Z,3.10
2018-06-21T09:30:18.524Z,2.33
2018-06-21T09:32:48.603Z,2.13
2018-06-21T09:35:18.707Z,2.47
2018-06-21T09:37:54.104Z,2.17
2018-06-21T09:40:29.384Z,2.33
2018-06-21T09:43:04.893Z,2.53
2018-06-21T09:45:40.376Z,2.33
2018-06-21T09:48:15.836Z,2.37
2018-06-21T09:50:46.110Z,2.47
2018-06-21T09:53:16.248Z,2.43
2018-06-21T09:55:46.367Z,2.47
2018-06-21T09:58:16.540Z,2.53
2018-06-21T10:00:51.956Z,2.37
2018-06-21T10:03:22.123Z,2.60
2018-06-21T10:05:52.265Z,2.67
2018-06-21T10:08:22.420Z,2.50
2018-06-21T10:10:52.496Z,2.73
2018-06-21T10:13:22.463Z,3.20
2018-06-21T10:15:52.568Z,2.67
2018-06-21T10:18:22.703Z,3.13
2018-06-21T10:20:52.776Z,3.30
2018-06-21T10:23:22.928Z,3.30
2018-06-21T10:25:53.090Z,3.03
2018-06-21T10:28:23.184Z,3.50
2018-06-21T10:30:53.264Z,3.50
2018-06-21T10:33:23.339Z,3.47
2018-06-21T10:35:53.396Z,3.90
2018-06-21T10:38:23.495Z,3.90
2018-06-21T10:40:53.616Z,3.47
2018-06-21T10:43:23.704Z,3.83
2018-06-21T10:45:53.508Z,3.83
2018-06-21T10:48:23.347Z,4.20
2018-06-21T10:50:53.444Z,3.90
2018-06-21T10:53:23.582Z,3.97
2018-06-21T10:55:53.824Z,3.30
2018-06-21T10:58:23.955Z,3.83
2018-06-21T11:00:54.234Z,3.67
2018-06-21T11:03:24.434Z,3.17
2018-06-21T11:05:54.676Z,3.80
2018-06-21T11:08:24.785Z,3.20
2018-06-21T11:10:54.918Z,2.60
2018-06-21T11:13:24.998Z,3.70
2018-06-21T11:15:55.141Z,3.13
2018-06-21T11:18:25.261Z,3.70
2018-06-21T11:20:55.359Z,3.60
2018-06-21T11:23:25.476Z,4.13
2018-06-21T11:25:55.592Z,4.00
2018-06-21T11:28:25.761Z,3.83
2018-06-21T11:30:55.863Z,4.03
2018-06-21T11:33:26.022Z,3.33
2018-06-21T11:35:56.196Z,3.40
2018-06-21T11:38:26.285Z,3.20
2018-06-21T11:40:56.400Z,3.20
2018-06-21T11:43:26.441Z,2.53
2018-06-21T11:45:56.515Z,2.70
2018-06-21T11:48:26.305Z,2.53
2018-06-21T11:50:56.068Z,1.90
2018-06-21T11:53:26.178Z,2.33
2018-06-21T11:55:56.312Z,1.83
2018-06-21T11:58:26.420Z,1.57
2018-06-21T12:00:56.568Z,2.00
2018-06-21T12:03:26.760Z,1.83
2018-06-21T12:05:56.881Z,1.77
2018-06-21T12:08:26.964Z,1.77
2018-06-21T12:10:57.057Z,1.83
2018-06-21T12:13:27.188Z,2.23
2018-06-21T12:15:57.276Z,1.63
2018-06-21T12:18:27.392Z,1.10
2018-06-21T12:20:57.531Z,1.20
2018-06-21T12:23:27.646Z,1.27
2018-06-21T12:25:57.753Z,1.20
2018-06-21T12:28:27.920Z,1.20
2018-06-21T12:30:58.034Z,1.00
2018-06-21T12:33:28.108Z,1.00
2018-06-21T12:35:58.200Z,1.10
2018-06-21T12:38:28.240Z,1.20
2018-06-21T12:40:58.344Z,1.20
2018-06-21T12:43:28.445Z,1.40
2018-06-21T12:45:58.539Z,2.33
2018-06-21T12:48:28.644Z,2.20
2018-06-21T12:50:58.800Z,1.97
2018-06-21T12:53:28.877Z,2.20
2018-06-21T12:55:58.981Z,2.23
2018-06-21T12:58:29.080Z,2.00
2018-06-21T13:00:59.314Z,2.37
2018-06-21T13:03:29.500Z,1.77
2018-06-21T13:05:59.580Z,1.30
2018-06-21T13:08:40.898Z,1.40
2018-06-21T13:11:40.962Z,1.13
2018-06-21T13:14:24.908Z,1.10
2018-06-21T13:16:55.012Z,1.57
2018-06-21T13:19:25.140Z,1.33
2018-06-21T13:21:55.312Z,1.10
2018-06-21T13:24:25.411Z,1.47
2018-06-21T13:26:55.528Z,1.37
2018-06-21T13:29:25.624Z,1.27
2018-06-21T13:31:55.853Z,1.10
2018-06-21T13:34:25.845Z,1.10
2018-06-21T13:36:56.904Z,0.77
2018-06-21T13:39:26.976Z,1.00
2018-06-21T13:41:57.084Z,0.80
2018-06-21T13:44:27.160Z,1.17
2018-06-21T13:46:57.329Z,0.93
2018-06-21T13:49:27.660Z,0.80
2018-06-21T13:51:58.257Z,1.00
2018-06-21T13:54:28.650Z,0.70
2018-06-21T13:56:58.748Z,0.90
2018-06-21T13:59:28.876Z,1.10
2018-06-21T14:01:58.960Z,0.80
2018-06-21T14:04:29.483Z,1.00
2018-06-21T14:06:59.668Z,0.60
2018-06-21T14:09:29.825Z,0.90
2018-06-21T14:12:00.028Z,0.73
2018-06-21T14:14:30.144Z,0.63
2018-06-21T14:17:00.401Z,0.70
2018-06-21T14:19:30.632Z,0.67
2018-06-21T14:22:00.864Z,0.80
2018-06-21T14:24:30.938Z,0.77
2018-06-21T14:27:01.089Z,0.70
2018-06-21T14:29:31.184Z,0.70
2018-06-21T14:32:01.305Z,0.80
2018-06-21T14:34:31.432Z,0.70
2018-06-21T14:37:01.552Z,0.70
2018-06-21T14:39:31.580Z,0.97
2018-06-21T14:42:01.704Z,0.77
2018-06-21T14:44:31.800Z,0.63
2018-06-21T14:47:01.930Z,0.80
2018-06-21T14:49:32.072Z,0.80
2018-06-21T14:52:02.156Z,0.73
2018-06-21T14:54:32.256Z,0.70
2018-06-21T14:57:02.375Z,0.57
2018-06-21T14:59:32.538Z,0.70
2018-06-21T15:02:02.614Z,0.60
2018-06-21T15:04:32.706Z,0.80
2018-06-21T15:07:02.804Z,0.60
2018-06-21T15:09:32.960Z,0.60
2018-06-21T15:12:03.092Z,0.83
2018-06-21T15:14:33.286Z,0.90
2018-06-21T15:17:03.303Z,0.90
2018-06-21T15:19:33.452Z,0.70
2018-06-21T15:22:03.206Z,0.70
2018-06-21T15:24:33.003Z,0.70
2018-06-21T15:27:03.076Z,0.90
2018-06-21T15:29:33.394Z,0.73
2018-06-21T15:32:03.536Z,0.70
2018-06-21T15:34:33.679Z,0.90
2018-06-21T15:37:03.829Z,0.87
2018-06-21T15:39:33.934Z,1.27
2018-06-21T15:42:04.132Z,0.83
2018-06-21T15:44:34.236Z,0.93
2018-06-21T15:47:04.321Z,0.80
2018-06-21T15:49:34.349Z,0.73
2018-06-21T15:52:04.462Z,0.77
2018-06-21T15:54:34.556Z,0.63
2018-06-21T15:57:04.947Z,0.90
2018-06-21T15:59:35.325Z,0.77
2018-06-21T16:02:05.875Z,0.80
2018-06-21T16:04:36.000Z,1.27
2018-06-21T16:07:06.128Z,0.80
2018-06-21T16:09:36.367Z,1.10
2018-06-21T16:12:06.432Z,1.03
2018-06-21T16:14:36.792Z,1.27
2018-06-21T16:17:06.896Z,0.93
2018-06-21T16:19:36.971Z,2.40
2018-06-21T16:22:06.727Z,1.57
2018-06-21T16:24:36.553Z,2.97
2018-06-21T16:27:06.851Z,2.90
2018-06-21T16:29:37.168Z,1.90
2018-06-21T16:32:07.284Z,2.13
2018-06-21T16:34:37.426Z,3.33
2018-06-21T16:37:07.581Z,1.80
2018-06-21T16:39:37.771Z,1.20
2018-06-21T16:42:07.904Z,2.47
2018-06-21T16:44:37.668Z,2.57
2018-06-21T16:47:07.520Z,2.47
2018-06-21T16:49:37.665Z,2.20
2018-06-21T16:52:07.852Z,1.70
2018-06-21T16:54:37.972Z,1.83
2018-06-21T16:57:08.264Z,1.20
2018-06-21T16:59:38.373Z,1.20
2018-06-21T17:02:08.474Z,1.00
2018-06-21T17:04:38.564Z,1.13
2018-06-21T17:07:08.654Z,1.13
2018-06-21T17:09:38.783Z,0.90
2018-06-21T17:12:08.880Z,1.00
2018-06-21T17:14:39.148Z,1.67
2018-06-21T17:17:09.253Z,2.63
2018-06-21T17:19:39.396Z,13.33
2018-06-21T17:22:09.536Z,7.83
2018-06-21T17:24:39.620Z,3.70
2018-06-21T17:27:09.713Z,2.13
2018-06-21T17:29:39.836Z,3.10
2018-06-21T17:32:09.619Z,3.97
2018-06-21T17:34:39.525Z,1.90
2018-06-21T17:37:09.588Z,1.97
2018-06-21T17:39:39.711Z,1.43
2018-06-21T17:42:09.852Z,1.90
2018-06-21T17:44:39.956Z,2.63
2018-06-21T17:47:10.064Z,2.43
2018-06-21T17:49:40.142Z,1.87
2018-06-21T17:52:10.228Z,1.90
2018-06-21T17:54:40.384Z,1.80
2018-06-21T17:57:10.472Z,1.77
2018-06-21T17:59:40.298Z,1.40
2018-06-21T18:02:10.172Z,1.70
2018-06-21T18:04:40.228Z,1.37
2018-06-21T18:07:10.376Z,1.43
2018-06-21T18:09:40.355Z,1.30
2018-06-21T18:12:10.404Z,1.40
2018-06-21T18:14:40.488Z,1.70
2018-06-21T18:17:10.604Z,3.40
2018-06-21T18:19:40.818Z,2.03
2018-06-21T18:22:10.938Z,3.20
2018-06-21T18:24:41.045Z,1.10
2018-06-21T18:27:11.140Z,1.03
2018-06-21T18:29:41.468Z,1.00
2018-06-21T18:32:11.646Z,1.03
2018-06-21T18:34:41.737Z,1.00
2018-06-21T18:37:11.883Z,1.33
2018-06-21T18:39:41.976Z,1.23
2018-06-21T18:42:12.048Z,1.37
2018-06-21T18:44:42.152Z,1.50
2018-06-21T18:47:12.304Z,1.73
2018-06-21T18:49:42.504Z,1.53
2018-06-21T18:52:12.586Z,5.00
2018-06-21T18:54:42.724Z,3.10
2018-06-21T18:57:12.840Z,1.37
2018-06-21T18:59:42.916Z,1.47
2018-06-21T19:02:13.022Z,1.20
2018-06-21T19:04:43.223Z,1.17
2018-06-21T19:07:18.600Z,1.00
2018-06-21T19:09:54.029Z,1.37
2018-06-21T19:12:24.090Z,2.07
2018-06-21T19:14:54.284Z,1.77
2018-06-21T19:17:24.453Z,1.63
2018-06-21T19:19:54.564Z,1.83
2018-06-21T19:22:24.668Z,1.60
2018-06-21T19:24:54.643Z,1.40
2018-06-21T19:27:24.307Z,2.10
2018-06-21T19:29:54.277Z,1.57
2018-06-21T19:32:24.079Z,2.10
2018-06-21T19:34:53.964Z,1.60
2018-06-21T19:37:24.068Z,1.37
2018-06-21T19:39:54.152Z,1.93
2018-06-21T19:42:24.228Z,1.20
2018-06-21T19:44:54.368Z,1.17
2018-06-21T19:47:24.116Z,1.13
2018-06-21T19:49:53.879Z,1.43
2018-06-21T19:52:24.016Z,1.43
2018-06-21T19:54:54.092Z,0.90
2018-06-21T19:57:24.195Z,1.07
2018-06-21T19:59:54.359Z,1.33
2018-06-21T20:02:28.656Z,1.40
2018-06-21T20:04:58.912Z,1.00
2018-06-21T20:07:29.161Z,1.27
2018-06-21T20:09:59.120Z,1.20
2018-06-21T20:12:29.232Z,1.30
2018-06-21T20:14:59.284Z,1.50
2018-06-21T20:17:29.384Z,1.40
2018-06-21T20:20:04.780Z,1.10
2018-06-21T20:22:34.876Z,1.27
2018-06-21T20:25:05.004Z,1.27
2018-06-21T20:27:35.100Z,1.03
2018-06-21T20:30:05.337Z,1.10
2018-06-21T20:32:35.752Z,1.13
2018-06-21T20:35:05.868Z,1.00
2018-06-21T20:37:35.914Z,1.13
2018-06-21T20:40:05.979Z,1.10
2018-06-21T20:42:36.157Z,1.20
2018-06-21T20:45:06.160Z,1.30
2018-06-21T20:47:36.303Z,0.90
2018-06-21T20:50:06.352Z,1.17
2018-06-21T20:52:36.215Z,1.00
2018-06-21T20:55:06.160Z,1.30
2018-06-21T20:57:36.380Z,1.43
2018-06-21T21:00:06.499Z,1.30
2018-06-21T21:02:36.580Z,1.20
2018-06-21T21:05:08.828Z,1.10
2018-06-21T21:07:39.010Z,1.10
2018-06-21T21:10:10.192Z,0.90
2018-06-21T21:12:40.564Z,0.90
2018-06-21T21:15:11.539Z,0.90
2018-06-21T21:17:41.721Z,0.80
2018-06-21T21:20:11.883Z,0.57
2018-06-21T21:22:42.604Z,0.60
2018-06-21T21:25:12.628Z,0.80
2018-06-21T21:27:42.607Z,0.70
2018-06-21T21:30:12.676Z,0.60
2018-06-21T21:32:42.660Z,0.70
2018-06-21T21:35:12.317Z,0.40
2018-06-21T21:37:42.108Z,0.40
2018-06-21T21:40:12.160Z,0.40
2018-06-21T21:42:42.205Z,0.77
2018-06-21T21:45:12.275Z,0.50
2018-06-21T21:47:42.307Z,0.60
2018-06-21T21:50:12.372Z,0.40
2018-06-21T21:52:42.463Z,0.40
2018-06-21T21:55:12.544Z,0.40
2018-06-21T21:57:42.610Z,0.40
2018-06-21T22:00:54.633Z,0.40
2018-06-21T22:03:24.742Z,0.40
2018-06-21T22:05:54.752Z,0.47
2018-06-21T22:08:24.866Z,0.30
2018-06-21T22:10:54.924Z,0.40
2018-06-21T22:13:25.009Z,0.20
2018-06-21T22:15:55.128Z,0.20
2018-06-21T22:18:25.224Z,0.20
2018-06-21T22:20:55.191Z,0.13
2018-06-21T22:23:25.256Z,0.20
2018-06-21T22:25:55.352Z,0.43
2018-06-21T22:28:25.448Z,0.30
2018-06-21T22:30:55.504Z,0.40
2018-06-21T22:33:25.592Z,0.13
2018-06-21T22:35:55.684Z,0.20
2018-06-21T22:38:25.735Z,0.30
2018-06-21T22:40:55.792Z,0.20
2018-06-21T22:43:25.836Z,0.20
2018-06-21T22:45:55.864Z,0.40
2018-06-21T22:48:25.914Z,0.23
2018-06-21T22:50:55.948Z,0.20
2018-06-21T22:53:25.984Z,0.20
2018-06-21T22:55:56.099Z,0.60
2018-06-21T22:58:26.133Z,0.20
2018-06-21T23:00:55.959Z,0.20
2018-06-21T23:03:25.753Z,0.20
2018-06-21T23:05:55.789Z,0.20
2018-06-21T23:08:25.796Z,0.40
2018-06-21T23:10:55.784Z,0.30
2018-06-21T23:13:25.844Z,0.20
2018-06-21T23:15:55.920Z,0.20
2018-06-21T23:18:37.051Z,0.10
2018-06-21T23:21:07.096Z,0.10
2018-06-21T23:23:37.111Z,0.10
2018-06-21T23:26:07.168Z,0.10
2018-06-21T23:28:37.207Z,0.40
2018-06-21T23:31:07.252Z,0.13
2018-06-21T23:33:37.300Z,0.20
2018-06-21T23:36:07.360Z,0.30
2018-06-21T23:38:37.421Z,0.20
2018-06-21T23:41:07.628Z,0.17
2018-06-21T23:43:37.628Z,0.20
2018-06-21T23:46:07.672Z,0.10
2018-06-21T23:48:37.702Z,0.20
2018-06-21T23:51:07.724Z,0.30
2018-06-21T23:53:37.767Z,0.30
2018-06-21T23:56:07.741Z,0.10
2018-06-21T23:58:37.732Z,0.40
